Disclaimer

Please do not use the information listed here in-flight or in-navigation, as they are not provided to us by the airports but are provided by volunteers, so they might be outdated.

Search


Regions


Airport information page

No radio frequency information is available.

Airport informations:
Latitude: 24° 46' 58.20" N
Longitude: 125° 17' 42.40" E
Elevation: 150 feet - 46 meters
Operating hours: Remarks
Operating agency: Civil government, landing fees and diplomatic clearance may be required
Timezone: UTC+9
Fuel: Jet A, without icing inhibitor.

Runway information:
04/22 - 6560 x 150 feet< - >1999 x 46 meters

Recent METARs:
ROMY 170800Z 36013G23KT 340V040 9999 FEW024 SCT032 BKN040 18/13 Q1020
ROMY 170900Z 36012KT 9999 SCT023 BKN030 17/13 Q1021
ROMY 170900Z 36012KT 9999 SCT023 BKN030 17/13 Q1021

Airport on the map: